sensor_id;sensor_type;location;lat;lon;timestamp;P1;durP1;ratioP1;P2;durP2;ratioP2
80322;SDS011;69636;52.372;13.610;2023-08-20T00:01:46;18.00;;;15.88;;
80322;SDS011;69636;52.372;13.610;2023-08-20T00:04:17;17.00;;;15.18;;
80322;SDS011;69636;52.372;13.610;2023-08-20T00:06:45;15.55;;;13.85;;
80322;SDS011;69636;52.372;13.610;2023-08-20T00:09:13;18.35;;;16.40;;
80322;SDS011;69636;52.372;13.610;2023-08-20T00:11:40;17.67;;;15.85;;
80322;SDS011;69636;52.372;13.610;2023-08-20T00:14:07;19.63;;;16.35;;
80322;SDS011;69636;52.372;13.610;2023-08-20T00:16:36;17.17;;;14.25;;
80322;SDS011;69636;52.372;13.610;2023-08-20T00:19:04;19.10;;;17.02;;
80322;SDS011;69636;52.372;13.610;2023-08-20T00:21:31;17.98;;;14.68;;
80322;SDS011;69636;52.372;13.610;2023-08-20T00:23:59;19.33;;;17.30;;
80322;SDS011;69636;52.372;13.610;2023-08-20T00:26:27;18.90;;;16.92;;
80322;SDS011;69636;52.372;13.610;2023-08-20T00:28:55;18.33;;;16.42;;
80322;SDS011;69636;52.372;13.610;2023-08-20T00:31:22;19.70;;;16.92;;
80322;SDS011;69636;52.372;13.610;2023-08-20T00:33:51;19.55;;;17.45;;
80322;SDS011;69636;52.372;13.610;2023-08-20T00:36:32;18.58;;;16.60;;
80322;SDS011;69636;52.372;13.610;2023-08-20T00:38:59;17.73;;;14.68;;
80322;SDS011;69636;52.372;13.610;2023-08-20T00:41:26;19.45;;;16.50;;
80322;SDS011;69636;52.372;13.610;2023-08-20T00:43:53;21.33;;;18.30;;
80322;SDS011;69636;52.372;13.610;2023-08-20T00:46:21;19.60;;;16.50;;
80322;SDS011;69636;52.372;13.610;2023-08-20T00:48:48;18.08;;;14.73;;
80322;SDS011;69636;52.372;13.610;2023-08-20T00:53:44;17.73;;;15.80;;
80322;SDS011;69636;52.372;13.610;2023-08-20T00:58:38;19.83;;;15.20;;
80322;SDS011;69636;52.372;13.610;2023-08-20T01:01:06;18.73;;;16.70;;
80322;SDS011;69636;52.372;13.610;2023-08-20T01:03:33;19.63;;;16.52;;
80322;SDS011;69636;52.372;13.610;2023-08-20T01:06:03;18.63;;;16.20;;
80322;SDS011;69636;52.372;13.610;2023-08-20T01:08:41;17.60;;;15.75;;
80322;SDS011;69636;52.372;13.610;2023-08-20T01:11:12;18.60;;;16.60;;
80322;SDS011;69636;52.372;13.610;2023-08-20T01:13:44;18.95;;;16.50;;
80322;SDS011;69636;52.372;13.610;2023-08-20T01:16:11;16.90;;;14.52;;
80322;SDS011;69636;52.372;13.610;2023-08-20T01:18:40;18.15;;;16.20;;
80322;SDS011;69636;52.372;13.610;2023-08-20T01:21:11;19.52;;;17.17;;
80322;SDS011;69636;52.372;13.610;2023-08-20T01:26:48;19.10;;;16.85;;
80322;SDS011;69636;52.372;13.610;2023-08-20T01:29:28;19.58;;;17.33;;
80322;SDS011;69636;52.372;13.610;2023-08-20T01:31:56;17.67;;;14.93;;
80322;SDS011;69636;52.372;13.610;2023-08-20T01:34:24;19.05;;;16.95;;
80322;SDS011;69636;52.372;13.610;2023-08-20T01:36:52;18.63;;;16.65;;
80322;SDS011;69636;52.372;13.610;2023-08-20T01:39:19;20.45;;;18.27;;
80322;SDS011;69636;52.372;13.610;2023-08-20T01:41:46;19.45;;;17.33;;
80322;SDS011;69636;52.372;13.610;2023-08-20T01:44:13;17.63;;;15.63;;
80322;SDS011;69636;52.372;13.610;2023-08-20T01:46:42;17.20;;;15.18;;
80322;SDS011;69636;52.372;13.610;2023-08-20T01:49:09;17.00;;;15.30;;
80322;SDS011;69636;52.372;13.610;2023-08-20T01:51:37;18.15;;;15.98;;
80322;SDS011;69636;52.372;13.610;2023-08-20T01:54:04;18.65;;;16.65;;
80322;SDS011;69636;52.372;13.610;2023-08-20T01:56:32;18.42;;;16.45;;
80322;SDS011;69636;52.372;13.610;2023-08-20T01:58:59;17.88;;;16.02;;
80322;SDS011;69636;52.372;13.610;2023-08-20T02:01:26;17.98;;;14.23;;
80322;SDS011;69636;52.372;13.610;2023-08-20T02:03:55;17.42;;;14.50;;
80322;SDS011;69636;52.372;13.610;2023-08-20T02:06:22;19.90;;;17.77;;
80322;SDS011;69636;52.372;13.610;2023-08-20T02:08:50;17.77;;;14.32;;
80322;SDS011;69636;52.372;13.610;2023-08-20T02:11:17;18.00;;;14.43;;
80322;SDS011;69636;52.372;13.610;2023-08-20T02:13:44;17.70;;;15.60;;
80322;SDS011;69636;52.372;13.610;2023-08-20T02:16:11;16.73;;;14.68;;
80322;SDS011;69636;52.372;13.610;2023-08-20T02:18:39;17.67;;;15.75;;
80322;SDS011;69636;52.372;13.610;2023-08-20T02:21:07;19.08;;;14.77;;
80322;SDS011;69636;52.372;13.610;2023-08-20T02:23:34;18.08;;;16.02;;
80322;SDS011;69636;52.372;13.610;2023-08-20T02:26:02;17.10;;;15.15;;
80322;SDS011;69636;52.372;13.610;2023-08-20T02:28:29;16.95;;;15.15;;
80322;SDS011;69636;52.372;13.610;2023-08-20T02:30:56;15.20;;;13.60;;
80322;SDS011;69636;52.372;13.610;2023-08-20T02:33:24;16.05;;;14.38;;
80322;SDS011;69636;52.372;13.610;2023-08-20T02:35:51;17.33;;;14.30;;
80322;SDS011;69636;52.372;13.610;2023-08-20T02:38:19;19.17;;;14.45;;
80322;SDS011;69636;52.372;13.610;2023-08-20T02:40:47;17.08;;;14.10;;
80322;SDS011;69636;52.372;13.610;2023-08-20T02:43:14;16.30;;;13.30;;
80322;SDS011;69636;52.372;13.610;2023-08-20T02:45:42;16.13;;;12.43;;
80322;SDS011;69636;52.372;13.610;2023-08-20T02:48:10;15.68;;;12.60;;
80322;SDS011;69636;52.372;13.610;2023-08-20T02:50:38;14.43;;;12.13;;
80322;SDS011;69636;52.372;13.610;2023-08-20T02:55:34;16.27;;;13.60;;
80322;SDS011;69636;52.372;13.610;2023-08-20T02:58:01;16.80;;;13.05;;
80322;SDS011;69636;52.372;13.610;2023-08-20T03:00:28;15.25;;;13.02;;
80322;SDS011;69636;52.372;13.610;2023-08-20T03:02:56;18.70;;;13.15;;
80322;SDS011;69636;52.372;13.610;2023-08-20T03:07:54;14.10;;;12.30;;
80322;SDS011;69636;52.372;13.610;2023-08-20T03:10:22;15.32;;;12.45;;
80322;SDS011;69636;52.372;13.610;2023-08-20T03:12:50;15.93;;;12.77;;
80322;SDS011;69636;52.372;13.610;2023-08-20T03:15:17;13.50;;;12.10;;
80322;SDS011;69636;52.372;13.610;2023-08-20T03:17:45;15.55;;;12.75;;
80322;SDS011;69636;52.372;13.610;2023-08-20T03:20:12;13.52;;;12.10;;
80322;SDS011;69636;52.372;13.610;2023-08-20T03:22:40;13.73;;;11.52;;
80322;SDS011;69636;52.372;13.610;2023-08-20T03:25:07;14.05;;;12.35;;
80322;SDS011;69636;52.372;13.610;2023-08-20T03:27:35;15.55;;;11.93;;
80322;SDS011;69636;52.372;13.610;2023-08-20T03:30:04;13.65;;;11.05;;
80322;SDS011;69636;52.372;13.610;2023-08-20T03:32:32;13.43;;;11.90;;
80322;SDS011;69636;52.372;13.610;2023-08-20T03:35:00;14.40;;;12.90;;
80322;SDS011;69636;52.372;13.610;2023-08-20T03:37:27;14.10;;;12.20;;
80322;SDS011;69636;52.372;13.610;2023-08-20T03:39:54;13.55;;;11.82;;
80322;SDS011;69636;52.372;13.610;2023-08-20T03:44:49;13.80;;;11.65;;
80322;SDS011;69636;52.372;13.610;2023-08-20T03:47:17;14.35;;;11.80;;
80322;SDS011;69636;52.372;13.610;2023-08-20T03:49:45;14.98;;;12.43;;
80322;SDS011;69636;52.372;13.610;2023-08-20T03:52:12;12.15;;;10.27;;
80322;SDS011;69636;52.372;13.610;2023-08-20T03:54:39;12.25;;;10.70;;
80322;SDS011;69636;52.372;13.610;2023-08-20T03:57:06;13.70;;;10.05;;
80322;SDS011;69636;52.372;13.610;2023-08-20T03:59:34;14.25;;;12.05;;
80322;SDS011;69636;52.372;13.610;2023-08-20T04:02:01;13.30;;;11.27;;
80322;SDS011;69636;52.372;13.610;2023-08-20T04:04:30;13.38;;;10.93;;
80322;SDS011;69636;52.372;13.610;2023-08-20T04:06:57;12.38;;;10.40;;
80322;SDS011;69636;52.372;13.610;2023-08-20T04:09:24;13.57;;;11.05;;
80322;SDS011;69636;52.372;13.610;2023-08-20T04:11:51;14.95;;;10.40;;
80322;SDS011;69636;52.372;13.610;2023-08-20T04:14:19;14.25;;;11.45;;
80322;SDS011;69636;52.372;13.610;2023-08-20T04:16:46;14.88;;;11.77;;
80322;SDS011;69636;52.372;13.610;2023-08-20T04:19:13;11.93;;;9.85;;
80322;SDS011;69636;52.372;13.610;2023-08-20T04:21:42;14.38;;;11.65;;
80322;SDS011;69636;52.372;13.610;2023-08-20T04:24:09;13.77;;;11.32;;
80322;SDS011;69636;52.372;13.610;2023-08-20T04:26:36;13.40;;;10.23;;
80322;SDS011;69636;52.372;13.610;2023-08-20T04:29:04;13.07;;;11.25;;
80322;SDS011;69636;52.372;13.610;2023-08-20T04:31:31;12.43;;;10.70;;
80322;SDS011;69636;52.372;13.610;2023-08-20T04:33:58;12.57;;;11.27;;
80322;SDS011;69636;52.372;13.610;2023-08-20T04:36:26;12.93;;;10.57;;
80322;SDS011;69636;52.372;13.610;2023-08-20T04:38:54;12.75;;;10.20;;
80322;SDS011;69636;52.372;13.610;2023-08-20T04:41:21;12.85;;;10.70;;
80322;SDS011;69636;52.372;13.610;2023-08-20T04:43:49;12.48;;;11.10;;
80322;SDS011;69636;52.372;13.610;2023-08-20T04:46:16;12.45;;;10.48;;
80322;SDS011;69636;52.372;13.610;2023-08-20T04:48:43;13.82;;;11.45;;
80322;SDS011;69636;52.372;13.610;2023-08-20T04:51:10;13.07;;;11.23;;
80322;SDS011;69636;52.372;13.610;2023-08-20T04:53:38;12.93;;;10.68;;
80322;SDS011;69636;52.372;13.610;2023-08-20T04:56:06;13.63;;;8.65;;
80322;SDS011;69636;52.372;13.610;2023-08-20T04:58:34;12.40;;;10.30;;
80322;SDS011;69636;52.372;13.610;2023-08-20T05:01:01;12.93;;;10.50;;
80322;SDS011;69636;52.372;13.610;2023-08-20T05:03:28;13.90;;;10.32;;
80322;SDS011;69636;52.372;13.610;2023-08-20T05:05:56;12.68;;;10.35;;
80322;SDS011;69636;52.372;13.610;2023-08-20T05:08:23;12.45;;;11.05;;
80322;SDS011;69636;52.372;13.610;2023-08-20T05:10:50;12.68;;;10.63;;
80322;SDS011;69636;52.372;13.610;2023-08-20T05:13:19;13.98;;;11.15;;
80322;SDS011;69636;52.372;13.610;2023-08-20T05:15:46;12.60;;;10.70;;
80322;SDS011;69636;52.372;13.610;2023-08-20T05:18:13;13.70;;;11.23;;
80322;SDS011;69636;52.372;13.610;2023-08-20T05:20:40;12.52;;;11.15;;
80322;SDS011;69636;52.372;13.610;2023-08-20T05:23:08;12.40;;;9.50;;
80322;SDS011;69636;52.372;13.610;2023-08-20T05:25:35;13.52;;;10.95;;
80322;SDS011;69636;52.372;13.610;2023-08-20T05:28:02;14.48;;;12.13;;
80322;SDS011;69636;52.372;13.610;2023-08-20T05:30:31;14.10;;;11.05;;
80322;SDS011;69636;52.372;13.610;2023-08-20T05:32:59;13.15;;;10.45;;
80322;SDS011;69636;52.372;13.610;2023-08-20T05:35:26;12.95;;;11.00;;
80322;SDS011;69636;52.372;13.610;2023-08-20T05:37:53;12.20;;;10.75;;
80322;SDS011;69636;52.372;13.610;2023-08-20T05:40:20;13.05;;;9.63;;
80322;SDS011;69636;52.372;13.610;2023-08-20T05:42:48;13.40;;;10.88;;
80322;SDS011;69636;52.372;13.610;2023-08-20T05:45:18;14.23;;;10.45;;
80322;SDS011;69636;52.372;13.610;2023-08-20T05:47:46;14.30;;;11.27;;
80322;SDS011;69636;52.372;13.610;2023-08-20T05:50:14;14.23;;;11.10;;
80322;SDS011;69636;52.372;13.610;2023-08-20T05:52:41;12.60;;;9.73;;
80322;SDS011;69636;52.372;13.610;2023-08-20T05:55:08;13.20;;;10.98;;
80322;SDS011;69636;52.372;13.610;2023-08-20T05:57:36;12.52;;;10.18;;
80322;SDS011;69636;52.372;13.610;2023-08-20T06:00:03;13.43;;;10.20;;
80322;SDS011;69636;52.372;13.610;2023-08-20T06:02:31;13.43;;;11.00;;
80322;SDS011;69636;52.372;13.610;2023-08-20T06:07:27;12.55;;;10.13;;
80322;SDS011;69636;52.372;13.610;2023-08-20T06:09:55;12.57;;;10.60;;
80322;SDS011;69636;52.372;13.610;2023-08-20T06:12:22;12.80;;;10.80;;
80322;SDS011;69636;52.372;13.610;2023-08-20T06:14:49;13.15;;;9.77;;
80322;SDS011;69636;52.372;13.610;2023-08-20T06:17:17;13.90;;;10.38;;
80322;SDS011;69636;52.372;13.610;2023-08-20T06:19:44;12.27;;;9.93;;
80322;SDS011;69636;52.372;13.610;2023-08-20T06:22:13;13.38;;;9.15;;
80322;SDS011;69636;52.372;13.610;2023-08-20T06:24:40;10.98;;;9.38;;
80322;SDS011;69636;52.372;13.610;2023-08-20T06:27:07;12.35;;;11.05;;
80322;SDS011;69636;52.372;13.610;2023-08-20T06:29:35;11.45;;;9.18;;
80322;SDS011;69636;52.372;13.610;2023-08-20T06:32:02;11.70;;;10.10;;
80322;SDS011;69636;52.372;13.610;2023-08-20T06:34:31;13.38;;;10.57;;
80322;SDS011;69636;52.372;13.610;2023-08-20T06:37:00;12.95;;;10.23;;
80322;SDS011;69636;52.372;13.610;2023-08-20T06:39:29;13.05;;;9.63;;
80322;SDS011;69636;52.372;13.610;2023-08-20T06:41:57;12.75;;;10.10;;
80322;SDS011;69636;52.372;13.610;2023-08-20T06:44:24;11.88;;;9.90;;
80322;SDS011;69636;52.372;13.610;2023-08-20T06:46:51;11.52;;;9.98;;
80322;SDS011;69636;52.372;13.610;2023-08-20T06:49:19;12.23;;;10.63;;
80322;SDS011;69636;52.372;13.610;2023-08-20T06:51:46;13.55;;;10.90;;
80322;SDS011;69636;52.372;13.610;2023-08-20T06:54:14;12.55;;;10.60;;
80322;SDS011;69636;52.372;13.610;2023-08-20T06:56:43;12.52;;;10.75;;
80322;SDS011;69636;52.372;13.610;2023-08-20T06:59:10;12.32;;;9.70;;
80322;SDS011;69636;52.372;13.610;2023-08-20T07:01:37;11.75;;;9.77;;
80322;SDS011;69636;52.372;13.610;2023-08-20T07:04:05;12.65;;;9.25;;
80322;SDS011;69636;52.372;13.610;2023-08-20T07:06:32;12.60;;;10.15;;
80322;SDS011;69636;52.372;13.610;2023-08-20T07:11:27;12.52;;;10.57;;
80322;SDS011;69636;52.372;13.610;2023-08-20T07:16:22;13.30;;;10.07;;
80322;SDS011;69636;52.372;13.610;2023-08-20T07:18:50;15.93;;;11.18;;
80322;SDS011;69636;52.372;13.610;2023-08-20T07:21:17;13.20;;;11.10;;
80322;SDS011;69636;52.372;13.610;2023-08-20T07:23:44;13.88;;;11.32;;
80322;SDS011;69636;52.372;13.610;2023-08-20T07:26:11;13.82;;;10.95;;
80322;SDS011;69636;52.372;13.610;2023-08-20T07:31:08;13.52;;;10.73;;
80322;SDS011;69636;52.372;13.610;2023-08-20T07:33:37;15.95;;;11.02;;
80322;SDS011;69636;52.372;13.610;2023-08-20T07:36:04;12.40;;;9.82;;
80322;SDS011;69636;52.372;13.610;2023-08-20T07:40:58;14.70;;;11.63;;
80322;SDS011;69636;52.372;13.610;2023-08-20T07:43:26;13.60;;;10.80;;
80322;SDS011;69636;52.372;13.610;2023-08-20T07:45:53;14.25;;;10.35;;
80322;SDS011;69636;52.372;13.610;2023-08-20T07:48:22;13.40;;;10.70;;
80322;SDS011;69636;52.372;13.610;2023-08-20T07:50:49;12.68;;;9.82;;
80322;SDS011;69636;52.372;13.610;2023-08-20T07:53:16;15.05;;;9.70;;
80322;SDS011;69636;52.372;13.610;2023-08-20T07:55:43;11.95;;;10.63;;
80322;SDS011;69636;52.372;13.610;2023-08-20T07:58:11;15.75;;;11.50;;
80322;SDS011;69636;52.372;13.610;2023-08-20T08:00:38;13.18;;;11.07;;
80322;SDS011;69636;52.372;13.610;2023-08-20T08:03:05;11.73;;;10.07;;
80322;SDS011;69636;52.372;13.610;2023-08-20T08:08:01;14.18;;;10.38;;
80322;SDS011;69636;52.372;13.610;2023-08-20T08:10:29;12.25;;;8.75;;
80322;SDS011;69636;52.372;13.610;2023-08-20T08:15:23;11.48;;;9.23;;
80322;SDS011;69636;52.372;13.610;2023-08-20T08:17:50;12.13;;;9.77;;
80322;SDS011;69636;52.372;13.610;2023-08-20T08:20:17;12.63;;;9.40;;
80322;SDS011;69636;52.372;13.610;2023-08-20T08:25:13;13.25;;;9.35;;
80322;SDS011;69636;52.372;13.610;2023-08-20T08:27:41;11.45;;;8.80;;
80322;SDS011;69636;52.372;13.610;2023-08-20T08:30:26;11.85;;;9.75;;
80322;SDS011;69636;52.372;13.610;2023-08-20T08:32:53;12.57;;;10.55;;
80322;SDS011;69636;52.372;13.610;2023-08-20T08:37:49;12.32;;;10.30;;
80322;SDS011;69636;52.372;13.610;2023-08-20T08:40:16;14.05;;;10.13;;
80322;SDS011;69636;52.372;13.610;2023-08-20T08:42:44;12.40;;;9.55;;
80322;SDS011;69636;52.372;13.610;2023-08-20T08:45:14;13.48;;;10.02;;
80322;SDS011;69636;52.372;13.610;2023-08-20T08:47:44;19.25;;;14.80;;
80322;SDS011;69636;52.372;13.610;2023-08-20T08:50:12;14.88;;;11.48;;
80322;SDS011;69636;52.372;13.610;2023-08-20T08:52:41;13.27;;;10.48;;
80322;SDS011;69636;52.372;13.610;2023-08-20T08:55:10;11.85;;;8.77;;
80322;SDS011;69636;52.372;13.610;2023-08-20T08:57:37;12.52;;;9.73;;
80322;SDS011;69636;52.372;13.610;2023-08-20T09:00:05;12.57;;;9.90;;
80322;SDS011;69636;52.372;13.610;2023-08-20T09:02:33;11.73;;;9.07;;
80322;SDS011;69636;52.372;13.610;2023-08-20T09:05:00;12.55;;;8.93;;
80322;SDS011;69636;52.372;13.610;2023-08-20T09:09:57;11.55;;;8.20;;
80322;SDS011;69636;52.372;13.610;2023-08-20T09:12:27;10.45;;;7.80;;
80322;SDS011;69636;52.372;13.610;2023-08-20T09:14:54;10.38;;;8.27;;
80322;SDS011;69636;52.372;13.610;2023-08-20T09:17:24;11.55;;;8.27;;
80322;SDS011;69636;52.372;13.610;2023-08-20T09:19:53;9.68;;;8.68;;
80322;SDS011;69636;52.372;13.610;2023-08-20T09:22:21;9.35;;;7.10;;
80322;SDS011;69636;52.372;13.610;2023-08-20T09:24:52;8.60;;;7.00;;
80322;SDS011;69636;52.372;13.610;2023-08-20T09:27:20;9.25;;;7.00;;
80322;SDS011;69636;52.372;13.610;2023-08-20T09:29:50;9.63;;;7.50;;
80322;SDS011;69636;52.372;13.610;2023-08-20T09:32:18;10.52;;;8.77;;
80322;SDS011;69636;52.372;13.610;2023-08-20T09:34:47;10.02;;;7.55;;
80322;SDS011;69636;52.372;13.610;2023-08-20T09:37:15;9.88;;;8.48;;
80322;SDS011;69636;52.372;13.610;2023-08-20T09:39:43;9.82;;;8.77;;
80322;SDS011;69636;52.372;13.610;2023-08-20T09:42:11;13.30;;;9.38;;
80322;SDS011;69636;52.372;13.610;2023-08-20T09:44:40;11.27;;;9.77;;
80322;SDS011;69636;52.372;13.610;2023-08-20T09:47:10;9.77;;;7.85;;
80322;SDS011;69636;52.372;13.610;2023-08-20T09:49:40;10.70;;;8.15;;
80322;SDS011;69636;52.372;13.610;2023-08-20T09:52:09;10.48;;;9.05;;
80322;SDS011;69636;52.372;13.610;2023-08-20T09:54:55;14.35;;;11.27;;
80322;SDS011;69636;52.372;13.610;2023-08-20T09:57:28;9.30;;;7.88;;
80322;SDS011;69636;52.372;13.610;2023-08-20T10:02:30;9.07;;;6.90;;
80322;SDS011;69636;52.372;13.610;2023-08-20T10:04:59;9.80;;;6.13;;
80322;SDS011;69636;52.372;13.610;2023-08-20T10:07:26;9.27;;;7.65;;
80322;SDS011;69636;52.372;13.610;2023-08-20T10:09:55;8.20;;;6.75;;
80322;SDS011;69636;52.372;13.610;2023-08-20T10:12:23;8.32;;;7.30;;
80322;SDS011;69636;52.372;13.610;2023-08-20T10:14:51;8.80;;;6.35;;
80322;SDS011;69636;52.372;13.610;2023-08-20T10:17:18;8.95;;;6.35;;
80322;SDS011;69636;52.372;13.610;2023-08-20T10:19:47;8.73;;;6.45;;
80322;SDS011;69636;52.372;13.610;2023-08-20T10:22:15;8.68;;;7.13;;
80322;SDS011;69636;52.372;13.610;2023-08-20T10:24:47;8.90;;;7.50;;
80322;SDS011;69636;52.372;13.610;2023-08-20T10:27:23;9.20;;;6.15;;
80322;SDS011;69636;52.372;13.610;2023-08-20T10:29:52;8.27;;;6.50;;
80322;SDS011;69636;52.372;13.610;2023-08-20T10:32:19;8.02;;;5.93;;
80322;SDS011;69636;52.372;13.610;2023-08-20T10:34:50;7.90;;;5.72;;
80322;SDS011;69636;52.372;13.610;2023-08-20T10:37:25;6.70;;;4.97;;
80322;SDS011;69636;52.372;13.610;2023-08-20T10:39:54;6.72;;;4.78;;
80322;SDS011;69636;52.372;13.610;2023-08-20T10:42:22;6.43;;;4.30;;
80322;SDS011;69636;52.372;13.610;2023-08-20T10:44:56;5.35;;;3.70;;
80322;SDS011;69636;52.372;13.610;2023-08-20T10:47:23;4.90;;;3.45;;
80322;SDS011;69636;52.372;13.610;2023-08-20T10:49:53;5.43;;;4.40;;
80322;SDS011;69636;52.372;13.610;2023-08-20T10:52:22;7.13;;;4.35;;
80322;SDS011;69636;52.372;13.610;2023-08-20T10:54:50;5.13;;;4.10;;
80322;SDS011;69636;52.372;13.610;2023-08-20T10:57:17;5.32;;;3.97;;
80322;SDS011;69636;52.372;13.610;2023-08-20T10:59:47;5.28;;;3.80;;
80322;SDS011;69636;52.372;13.610;2023-08-20T11:02:23;5.90;;;3.70;;
80322;SDS011;69636;52.372;13.610;2023-08-20T11:04:53;4.63;;;3.80;;
80322;SDS011;69636;52.372;13.610;2023-08-20T11:07:20;4.88;;;3.42;;
80322;SDS011;69636;52.372;13.610;2023-08-20T11:09:49;5.28;;;3.72;;
80322;SDS011;69636;52.372;13.610;2023-08-20T11:12:19;5.45;;;3.50;;
80322;SDS011;69636;52.372;13.610;2023-08-20T11:14:47;5.97;;;3.10;;
80322;SDS011;69636;52.372;13.610;2023-08-20T11:17:14;4.65;;;3.30;;
80322;SDS011;69636;52.372;13.610;2023-08-20T11:19:41;6.05;;;3.85;;
80322;SDS011;69636;52.372;13.610;2023-08-20T11:22:14;5.10;;;3.80;;
80322;SDS011;69636;52.372;13.610;2023-08-20T11:24:42;4.78;;;3.38;;
80322;SDS011;69636;52.372;13.610;2023-08-20T11:27:09;5.55;;;3.33;;
80322;SDS011;69636;52.372;13.610;2023-08-20T11:29:36;4.53;;;3.20;;
80322;SDS011;69636;52.372;13.610;2023-08-20T11:32:04;4.95;;;3.30;;
80322;SDS011;69636;52.372;13.610;2023-08-20T11:34:31;4.95;;;3.60;;
80322;SDS011;69636;52.372;13.610;2023-08-20T11:36:58;26.55;;;22.75;;
80322;SDS011;69636;52.372;13.610;2023-08-20T11:39:27;5.13;;;3.15;;
80322;SDS011;69636;52.372;13.610;2023-08-20T11:41:56;4.35;;;2.90;;
80322;SDS011;69636;52.372;13.610;2023-08-20T11:44:24;4.57;;;2.70;;
80322;SDS011;69636;52.372;13.610;2023-08-20T11:46:51;4.18;;;2.70;;
80322;SDS011;69636;52.372;13.610;2023-08-20T11:49:26;4.63;;;3.15;;
80322;SDS011;69636;52.372;13.610;2023-08-20T11:51:55;3.60;;;2.70;;
80322;SDS011;69636;52.372;13.610;2023-08-20T11:54:22;4.38;;;2.45;;
80322;SDS011;69636;52.372;13.610;2023-08-20T11:56:51;5.20;;;2.92;;
80322;SDS011;69636;52.372;13.610;2023-08-20T11:59:19;5.35;;;2.60;;
80322;SDS011;69636;52.372;13.610;2023-08-20T12:01:50;4.43;;;3.10;;
80322;SDS011;69636;52.372;13.610;2023-08-20T12:04:17;3.95;;;2.70;;
80322;SDS011;69636;52.372;13.610;2023-08-20T12:06:45;3.75;;;2.67;;
80322;SDS011;69636;52.372;13.610;2023-08-20T12:09:29;4.68;;;2.75;;
80322;SDS011;69636;52.372;13.610;2023-08-20T12:11:57;4.57;;;2.33;;
80322;SDS011;69636;52.372;13.610;2023-08-20T12:14:25;4.32;;;2.97;;
80322;SDS011;69636;52.372;13.610;2023-08-20T12:16:53;3.83;;;2.88;;
80322;SDS011;69636;52.372;13.610;2023-08-20T12:19:21;5.07;;;2.72;;
80322;SDS011;69636;52.372;13.610;2023-08-20T12:21:49;3.70;;;2.70;;
80322;SDS011;69636;52.372;13.610;2023-08-20T12:24:16;3.80;;;2.53;;
80322;SDS011;69636;52.372;13.610;2023-08-20T12:26:44;3.60;;;2.67;;
80322;SDS011;69636;52.372;13.610;2023-08-20T12:29:13;3.20;;;2.25;;
80322;SDS011;69636;52.372;13.610;2023-08-20T12:31:40;4.78;;;2.88;;
80322;SDS011;69636;52.372;13.610;2023-08-20T12:34:08;3.97;;;2.55;;
80322;SDS011;69636;52.372;13.610;2023-08-20T12:36:35;3.70;;;2.53;;
80322;SDS011;69636;52.372;13.610;2023-08-20T12:39:02;3.35;;;2.47;;
80322;SDS011;69636;52.372;13.610;2023-08-20T12:41:30;3.75;;;2.63;;
80322;SDS011;69636;52.372;13.610;2023-08-20T12:43:57;3.40;;;2.58;;
80322;SDS011;69636;52.372;13.610;2023-08-20T12:46:26;5.28;;;2.40;;
80322;SDS011;69636;52.372;13.610;2023-08-20T12:48:53;4.25;;;1.95;;
80322;SDS011;69636;52.372;13.610;2023-08-20T12:51:21;3.97;;;2.42;;
80322;SDS011;69636;52.372;13.610;2023-08-20T12:53:48;3.88;;;2.40;;
80322;SDS011;69636;52.372;13.610;2023-08-20T12:56:15;3.90;;;2.35;;
80322;SDS011;69636;52.372;13.610;2023-08-20T12:58:42;4.90;;;2.80;;
80322;SDS011;69636;52.372;13.610;2023-08-20T13:01:10;3.50;;;2.22;;
80322;SDS011;69636;52.372;13.610;2023-08-20T13:03:39;4.32;;;2.92;;
80322;SDS011;69636;52.372;13.610;2023-08-20T13:06:07;3.75;;;2.03;;
80322;SDS011;69636;52.372;13.610;2023-08-20T13:08:35;3.63;;;2.03;;
80322;SDS011;69636;52.372;13.610;2023-08-20T13:11:03;4.15;;;2.30;;
80322;SDS011;69636;52.372;13.610;2023-08-20T13:13:33;3.22;;;2.30;;
80322;SDS011;69636;52.372;13.610;2023-08-20T13:16:01;3.65;;;2.40;;
80322;SDS011;69636;52.372;13.610;2023-08-20T13:18:29;4.38;;;2.35;;
80322;SDS011;69636;52.372;13.610;2023-08-20T13:20:58;3.85;;;2.38;;
80322;SDS011;69636;52.372;13.610;2023-08-20T13:23:26;3.50;;;2.00;;
80322;SDS011;69636;52.372;13.610;2023-08-20T13:25:53;3.53;;;2.03;;
80322;SDS011;69636;52.372;13.610;2023-08-20T13:28:20;3.55;;;2.38;;
80322;SDS011;69636;52.372;13.610;2023-08-20T13:30:47;5.20;;;2.28;;
80322;SDS011;69636;52.372;13.610;2023-08-20T13:33:15;3.78;;;2.50;;
80322;SDS011;69636;52.372;13.610;2023-08-20T13:35:42;3.25;;;2.38;;
80322;SDS011;69636;52.372;13.610;2023-08-20T13:38:11;4.30;;;2.38;;
80322;SDS011;69636;52.372;13.610;2023-08-20T13:40:38;3.95;;;2.13;;
80322;SDS011;69636;52.372;13.610;2023-08-20T13:43:05;3.22;;;1.90;;
80322;SDS011;69636;52.372;13.610;2023-08-20T13:45:33;3.88;;;2.15;;
80322;SDS011;69636;52.372;13.610;2023-08-20T13:48:00;4.63;;;2.20;;
80322;SDS011;69636;52.372;13.610;2023-08-20T13:50:27;3.47;;;2.00;;
80322;SDS011;69636;52.372;13.610;2023-08-20T13:52:56;3.72;;;1.98;;
80322;SDS011;69636;52.372;13.610;2023-08-20T13:55:27;3.20;;;1.75;;
80322;SDS011;69636;52.372;13.610;2023-08-20T13:57:54;4.25;;;1.90;;
80322;SDS011;69636;52.372;13.610;2023-08-20T14:00:22;3.70;;;2.00;;
80322;SDS011;69636;52.372;13.610;2023-08-20T14:02:49;4.07;;;2.50;;
80322;SDS011;69636;52.372;13.610;2023-08-20T14:05:16;17.67;;;12.25;;
80322;SDS011;69636;52.372;13.610;2023-08-20T14:07:44;3.67;;;1.85;;
80322;SDS011;69636;52.372;13.610;2023-08-20T14:10:11;4.03;;;1.80;;
80322;SDS011;69636;52.372;13.610;2023-08-20T14:12:39;5.10;;;2.50;;
80322;SDS011;69636;52.372;13.610;2023-08-20T14:15:08;33.17;;;23.40;;
80322;SDS011;69636;52.372;13.610;2023-08-20T14:17:36;3.20;;;1.33;;
80322;SDS011;69636;52.372;13.610;2023-08-20T14:20:04;2.75;;;1.20;;
80322;SDS011;69636;52.372;13.610;2023-08-20T14:22:32;2.53;;;1.20;;
80322;SDS011;69636;52.372;13.610;2023-08-20T14:24:59;3.38;;;1.33;;
80322;SDS011;69636;52.372;13.610;2023-08-20T14:27:26;3.00;;;1.30;;
80322;SDS011;69636;52.372;13.610;2023-08-20T14:29:55;3.10;;;1.05;;
80322;SDS011;69636;52.372;13.610;2023-08-20T14:32:22;3.92;;;1.00;;
80322;SDS011;69636;52.372;13.610;2023-08-20T14:34:49;2.35;;;1.33;;
80322;SDS011;69636;52.372;13.610;2023-08-20T14:37:17;2.97;;;1.58;;
80322;SDS011;69636;52.372;13.610;2023-08-20T14:39:44;2.80;;;1.20;;
80322;SDS011;69636;52.372;13.610;2023-08-20T14:44:38;2.33;;;0.75;;
80322;SDS011;69636;52.372;13.610;2023-08-20T14:47:07;2.28;;;0.90;;
80322;SDS011;69636;52.372;13.610;2023-08-20T14:49:34;2.42;;;1.23;;
80322;SDS011;69636;52.372;13.610;2023-08-20T14:52:01;2.65;;;0.90;;
80322;SDS011;69636;52.372;13.610;2023-08-20T14:54:45;2.38;;;1.13;;
80322;SDS011;69636;52.372;13.610;2023-08-20T14:57:12;1.90;;;0.90;;
80322;SDS011;69636;52.372;13.610;2023-08-20T14:59:40;3.45;;;1.20;;
80322;SDS011;69636;52.372;13.610;2023-08-20T15:02:08;2.47;;;0.93;;
80322;SDS011;69636;52.372;13.610;2023-08-20T15:04:36;2.97;;;1.48;;
80322;SDS011;69636;52.372;13.610;2023-08-20T15:07:03;10.20;;;5.22;;
80322;SDS011;69636;52.372;13.610;2023-08-20T15:09:30;5.43;;;2.65;;
80322;SDS011;69636;52.372;13.610;2023-08-20T15:11:58;5.28;;;2.78;;